Time;durP1;ratioP1;P1;durP2;ratioP2;P2;SDS_P1;SDS_P2;PMS_P1;PMS_P2;Temp;Humidity;BMP_temperature;BMP_pressure;BME280_temperature;BME280_humidity;BME280_pressure;Samples;Min_cycle;Max_cycle;Signal;HPM_P1;HPM_P2
2022/08/09 03:41:59;;;;;;;5.00;4.22;;;;;;;17.33;95.33;100842.66;6581291;26;254198;-86
2022/08/09 03:45:09;;;;;;;;;;;;;;;17.34;94.04;100847.03;6608820;27;34538;-86
2022/08/09 03:48:11;;;;;;;4.97;3.78;;;;;;;17.34;93.63;100838.88;6587332;27;33179;-86
2022/08/09 03:51:34;;;;;;;8.15;4.40;;;;;;;17.36;93.98;100834.06;6607474;27;34471;-86
2022/08/09 03:55:01;;;;;;;4.20;3.80;;;;;;;17.32;94.36;100833.66;6607801;27;33695;-86
2022/08/09 03:58:09;;;;;;;6.57;4.50;;;;;;;17.30;94.43;100843.91;6607266;27;34092;-86
2022/08/09 04:01:18;;;;;;;;;;;;;;;17.28;94.45;100834.28;6607332;27;33653;-86
2022/08/09 04:04:27;;;;;;;5.50;4.00;;;;;;;17.27;94.16;100836.19;6606696;27;34324;-86
2022/08/09 04:07:40;;;;;;;4.80;4.32;;;;;;;17.28;94.52;100834.28;6608302;27;34595;-85
2022/08/09 04:10:59;;;;;;;6.25;4.72;;;;;;;17.25;94.39;100838.25;6609851;27;33938;-86
2022/08/09 04:14:03;;;;;;;5.05;4.47;;;;;;;17.28;94.71;100837.00;6614036;26;34099;-85
2022/08/09 04:17:26;;;;;;;4.97;4.47;;;;;;;17.31;94.29;100837.41;6608688;27;33759;-86
2022/08/09 04:20:32;;;;;;;4.87;4.37;;;;;;;17.37;93.83;100839.28;6606902;27;33820;-86
2022/08/09 04:23:35;;;;;;;6.47;4.20;;;;;;;17.48;92.71;100839.72;6606645;27;34106;-86
2022/08/09 04:26:38;;;;;;;5.45;4.57;;;;;;;17.58;92.64;100837.37;6606940;27;34133;-86
2022/08/09 04:29:40;;;;;;;5.28;4.53;;;;;;;17.64;91.69;100845.53;6607035;27;34360;-86
2022/08/09 04:32:52;;;;;;;5.93;4.75;;;;;;;17.75;90.97;100843.19;6607017;27;35117;-86
2022/08/09 04:35:55;;;;;;;8.90;4.60;;;;;;;17.86;90.41;100856.19;6607575;27;33905;-86
2022/08/09 04:39:03;;;;;;;6.60;4.70;;;;;;;17.93;89.93;100859.75;6608476;27;34637;-84
2022/08/09 04:42:06;;;;;;;7.32;4.65;;;;;;;18.02;89.97;100855.75;6607755;26;34249;-87
2022/08/09 04:45:11;;;;;;;8.95;4.72;;;;;;;18.12;88.66;100858.81;6608115;27;34287;-87
2022/08/09 04:48:14;;;;;;;4.95;4.30;;;;;;;18.24;88.37;100863.59;6607375;27;34349;-86
2022/08/09 04:51:17;;;;;;;6.12;4.50;;;;;;;18.39;86.97;100863.31;6608861;27;34043;-84
2022/08/09 04:54:21;;;;;;;4.85;4.10;;;;;;;18.50;87.10;100859.91;6607931;27;34577;-84
2022/08/09 04:57:25;;;;;;;5.28;4.78;;;;;;;18.63;86.02;100859.00;6609512;27;33704;-85
2022/08/09 05:00:49;;;;;;;5.07;4.30;;;;;;;18.70;84.71;100860.63;6609160;27;34479;-85
2022/08/09 05:03:52;;;;;;;5.15;4.47;;;;;;;18.77;84.26;100853.25;6608383;27;35333;-86
2022/08/09 05:07:00;;;;;;;4.50;4.10;;;;;;;18.90;84.08;100854.25;6608599;27;33775;-85
2022/08/09 05:10:03;;;;;;;4.72;4.00;;;;;;;19.03;83.14;100862.31;6614851;27;33935;-85
2022/08/09 05:13:06;;;;;;;5.57;4.25;;;;;;;19.15;82.97;100865.16;6611951;27;34284;-86
2022/08/09 05:16:12;;;;;;;8.80;4.30;;;;;;;19.26;82.81;100858.97;6610913;27;34223;-86
2022/08/09 05:19:20;;;;;;;6.85;4.35;;;;;;;19.33;81.01;100862.47;6610284;27;34163;-86
2022/08/09 05:22:27;;;;;;;4.65;3.80;;;;;;;19.44;81.17;100861.75;6619945;27;34305;-86
2022/08/09 05:25:38;;;;;;;7.82;4.07;;;;;;;19.53;80.26;100870.47;6622619;27;35312;-86
2022/08/09 05:28:43;;;;;;;8.40;4.25;;;;;;;19.66;79.64;100869.56;6627613;26;34227;-86
2022/08/09 05:31:47;;;;;;;8.13;4.40;;;;;;;19.81;78.55;100874.66;6627249;26;35470;-87
2022/08/09 05:34:59;;;;;;;5.07;3.87;;;;;;;19.99;78.36;100871.09;6626357;26;34966;-86
2022/08/09 05:38:02;;;;;;;5.82;4.25;;;;;;;20.01;77.33;100869.81;6626446;26;35459;-86
2022/08/09 05:41:07;;;;;;;5.25;3.87;;;;;;;20.10;76.71;100876.63;6606668;27;33522;-86
2022/08/09 05:44:15;;;;;;;7.05;4.43;;;;;;;20.29;76.53;100879.34;6626589;26;34971;-86
2022/08/09 05:47:24;;;;;;;;;;;;;;;20.38;75.91;100877.97;6625686;27;35131;-86
2022/08/09 05:50:31;;;;;;;6.50;4.10;;;;;;;20.48;75.27;100875.53;6607850;27;34108;-86
2022/08/09 05:53:52;;;;;;;5.20;3.40;;;;;;;20.67;74.62;100878.25;6590262;27;32442;-86
2022/08/09 05:56:59;;;;;;;5.45;3.70;;;;;;;20.83;73.25;100878.41;6618115;27;34071;-84
2022/08/09 06:00:06;;;;;;;3.97;3.58;;;;;;;21.02;72.51;100878.34;6615143;27;34049;-85
2022/08/09 06:03:12;;;;;;;4.05;3.58;;;;;;;21.16;71.82;100877.06;6588786;27;33054;-90
2022/08/09 06:06:22;;;;;;;5.60;3.60;;;;;;;21.19;71.04;100876.59;6607033;27;34254;-90
2022/08/09 06:09:26;;;;;;;3.72;3.35;;;;;;;21.29;70.86;100876.84;6606601;27;34706;-86
2022/08/09 06:12:48;;;;;;;4.20;3.55;;;;;;;21.41;70.37;100876.03;6606267;27;33370;-86
2022/08/09 06:16:04;;;;;;;7.55;3.70;;;;;;;21.62;69.16;100864.50;6608194;27;33908;-84
2022/08/09 06:19:07;;;;;;;7.68;4.95;;;;;;;21.88;69.68;100876.00;6607901;27;34699;-86
2022/08/09 06:22:10;;;;;;;7.82;3.50;;;;;;;21.94;68.04;100877.81;6605360;27;34353;-83
2022/08/09 06:25:17;;;;;;;12.80;5.62;;;;;;;22.06;66.64;100875.06;6604914;27;35292;-84
2022/08/09 06:28:22;;;;;;;18.27;5.00;;;;;;;22.14;66.21;100881.00;6588611;27;32745;-84
2022/08/09 06:31:35;;;;;;;6.43;3.65;;;;;;;22.35;65.50;100876.78;6605351;27;34607;-84
2022/08/09 06:34:57;;;;;;;3.62;3.08;;;;;;;22.49;62.85;100882.81;6585736;27;33296;-85
2022/08/09 06:38:01;;;;;;;3.40;2.90;;;;;;;22.50;62.88;100872.69;6606863;27;33935;-85
2022/08/09 06:41:07;;;;;;;11.50;7.28;;;;;;;22.70;62.48;100870.31;6606904;27;34742;-85
2022/08/09 06:44:21;;;;;;;4.53;3.30;;;;;;;22.87;62.52;100884.91;6606529;26;33678;-84
2022/08/09 06:47:25;;;;;;;3.85;3.33;;;;;;;22.88;59.16;100877.50;6586526;27;32344;-85
2022/08/09 06:50:41;;;;;;;3.65;2.83;;;;;;;23.08;60.15;100882.56;6586233;27;33477;-85
2022/08/09 06:53:44;;;;;;;6.53;3.47;;;;;;;23.14;60.34;100873.31;6606687;27;34003;-85
2022/08/09 06:56:51;;;;;;;4.60;3.30;;;;;;;23.13;59.48;100871.63;6586032;27;33502;-85
2022/08/09 06:59:54;;;;;;;3.83;3.08;;;;;;;23.05;59.82;100875.66;6586178;27;32444;-84
2022/08/09 07:03:17;;;;;;;7.07;3.70;;;;;;;23.24;60.82;100878.16;6605793;27;35340;-85
2022/08/09 07:06:20;;;;;;;7.55;3.12;;;;;;;23.51;59.52;100878.28;6608811;27;33853;-86
2022/08/09 07:09:22;;;;;;;4.22;3.28;;;;;;;23.74;59.15;100883.63;6587732;27;32359;-86
2022/08/09 07:12:45;;;;;;;5.07;3.53;;;;;;;23.77;58.61;100879.53;6610271;27;33951;-86
2022/08/09 07:15:59;;;;;;;4.10;3.17;;;;;;;23.83;58.17;100875.75;6589393;27;32309;-85
2022/08/09 07:19:22;;;;;;;6.72;5.22;;;;;;;24.07;57.28;100879.09;6613274;27;34487;-86
2022/08/09 07:22:25;;;;;;;6.55;3.58;;;;;;;24.08;58.81;100880.78;6612481;27;34745;-86
2022/08/09 07:25:37;;;;;;;4.37;3.30;;;;;;;24.18;57.25;100886.41;6609821;27;34983;-86
2022/08/09 07:28:45;;;;;;;7.70;3.20;;;;;;;24.09;57.42;100878.88;6607026;27;34020;-86
2022/08/09 07:32:07;;;;;;;6.20;3.12;;;;;;;24.12;57.57;100884.69;6607128;27;34196;-85
2022/08/09 07:35:11;;;;;;;5.40;3.50;;;;;;;24.23;56.98;100877.41;6586872;27;32176;-86
2022/08/09 07:38:16;;;;;;;5.57;3.53;;;;;;;24.58;56.22;100879.75;6586654;27;32149;-86
2022/08/09 07:41:20;;;;;;;4.07;3.25;;;;;;;24.80;56.38;100876.94;6568227;27;32344;-85
2022/08/09 07:44:24;;;;;;;3.35;2.90;;;;;;;24.82;53.99;100868.44;6607192;27;33899;-86
2022/08/09 07:47:46;;;;;;;6.28;3.50;;;;;;;24.91;54.68;100866.84;6585850;27;32952;-85
2022/08/09 07:51:03;;;;;;;5.40;3.37;;;;;;;25.11;53.18;100863.47;6586192;27;32601;-86
2022/08/09 07:54:29;;;;;;;5.43;3.30;;;;;;;25.30;53.25;100864.75;6586095;27;32891;-83
2022/08/09 07:57:33;;;;;;;4.90;3.12;;;;;;;25.28;53.16;100866.09;6606070;27;34135;-84
2022/08/09 08:00:38;;;;;;;4.97;3.40;;;;;;;25.33;52.71;100874.41;6606548;27;34610;-86
2022/08/09 08:04:01;;;;;;;4.43;3.08;;;;;;;25.28;51.27;100868.88;6606622;27;34716;-83
2022/08/09 08:07:04;;;;;;;10.48;3.10;;;;;;;25.28;50.80;100868.88;6607430;27;34870;-85
2022/08/09 08:10:29;;;;;;;4.25;3.10;;;;;;;25.41;51.18;100870.31;6611285;27;34118;-84
2022/08/09 08:13:37;;;;;;;7.32;3.40;;;;;;;25.50;50.26;100866.81;6586768;27;33584;-84
2022/08/09 08:16:58;;;;;;;6.03;3.35;;;;;;;25.75;50.31;100871.66;6606489;27;35232;-84
2022/08/09 08:20:14;;;;;;;4.65;2.87;;;;;;;25.97;49.11;100876.22;6587179;27;33097;-84
2022/08/09 08:23:19;;;;;;;3.53;2.95;;;;;;;25.93;48.66;100872.34;6586139;27;33034;-84
2022/08/09 08:26:28;;;;;;;3.87;3.47;;;;;;;26.16;48.30;100871.91;6606368;27;33940;-84
2022/08/09 08:29:52;;;;;;;13.05;4.55;;;;;;;26.39;47.62;100878.06;6585575;27;32957;-88
2022/08/09 08:32:55;;;;;;;7.25;4.70;;;;;;;26.25;48.36;100866.69;6585792;27;32562;-84
2022/08/09 08:35:59;;;;;;;13.55;4.28;;;;;;;27.00;47.28;100869.06;6607856;27;33808;-84
2022/08/09 08:39:05;;;;;;;3.83;3.00;;;;;;;27.19;47.08;100858.34;6615092;27;34745;-84
2022/08/09 08:42:12;;;;;;;7.68;3.33;;;;;;;27.02;46.32;100862.16;6604646;26;33611;-84
2022/08/09 08:45:38;;;;;;;3.20;2.90;;;;;;;27.10;47.00;100863.56;6625350;26;33995;-84
2022/08/09 08:48:53;;;;;;;2.83;2.50;;;;;;;27.04;45.44;100859.12;6605681;26;34737;-84
2022/08/09 08:51:57;;;;;;;3.53;2.97;;;;;;;26.92;45.67;100865.75;6605404;27;34147;-84
2022/08/09 08:55:06;;;;;;;5.72;3.08;;;;;;;27.19;45.96;100861.91;6605642;27;34155;-84
2022/08/09 08:58:10;;;;;;;3.72;3.17;;;;;;;27.56;45.57;100863.56;6605289;27;33989;-84
2022/08/09 09:01:16;;;;;;;3.08;2.70;;;;;;;27.03;45.97;100855.53;6584514;27;32404;-84
2022/08/09 09:04:31;;;;;;;4.85;3.10;;;;;;;27.07;47.68;100859.41;6604725;27;33692;-84
2022/08/09 09:07:51;;;;;;;5.25;3.37;;;;;;;27.05;46.41;100855.25;6606229;27;33442;-84
2022/08/09 09:10:55;;;;;;;3.53;2.90;;;;;;;27.31;46.45;100856.94;6606632;27;33978;-84
2022/08/09 09:14:01;;;;;;;3.50;3.10;;;;;;;27.39;45.26;100852.78;6612710;27;33680;-85
2022/08/09 09:17:03;;;;;;;4.32;2.85;;;;;;;27.64;45.32;100857.44;6606594;27;32357;-84
2022/08/09 09:20:14;;;;;;;5.03;2.70;;;;;;;27.51;44.45;100855.25;6625689;26;34044;-84
2022/08/09 09:23:49;;;;;;;6.80;3.00;;;;;;;27.43;45.11;100855.81;6623019;27;35249;-83
2022/08/09 09:27:03;;;;;;;2.80;2.60;;;;;;;28.03;44.89;100849.31;6601695;27;34262;-85
2022/08/09 09:30:12;;;;;;;2.95;2.55;;;;;;;27.98;42.82;100845.75;6605581;27;33731;-85
2022/08/09 09:33:36;;;;;;;3.78;2.80;;;;;;;28.03;42.69;100843.78;6593300;27;33517;-84
2022/08/09 09:36:46;;;;;;;10.23;3.22;;;;;;;28.06;43.33;100845.16;6607223;27;34745;-84
2022/08/09 09:39:56;;;;;;;3.45;2.87;;;;;;;28.07;43.50;100846.81;6606653;27;33745;-84
2022/08/09 09:43:02;;;;;;;3.45;2.83;;;;;;;28.15;42.37;100851.75;6605091;27;33919;-85
2022/08/09 09:46:05;;;;;;;2.87;2.50;;;;;;;28.09;42.76;100846.53;6606203;27;33675;-85
2022/08/09 09:49:27;;;;;;;3.20;2.90;;;;;;;28.27;42.08;100843.94;6586075;27;34108;-84
2022/08/09 09:52:52;;;;;;;3.03;2.53;;;;;;;28.22;42.06;100852.25;6588363;27;33678;-84
2022/08/09 09:56:00;;;;;;;3.20;2.90;;;;;;;28.55;41.59;100843.53;6588112;27;32434;-84
2022/08/09 09:59:08;;;;;;;2.92;2.72;;;;;;;28.62;41.91;100842.09;6607679;27;34044;-84
2022/08/09 10:02:11;;;;;;;9.88;3.12;;;;;;;28.42;41.65;100847.78;6589194;27;33653;-84
2022/08/09 10:05:17;;;;;;;3.62;2.37;;;;;;;28.27;41.70;100843.94;6585697;27;33118;-84
2022/08/09 10:08:28;;;;;;;7.40;2.78;;;;;;;28.66;40.67;100840.41;6605381;27;34207;-88
2022/08/09 10:11:34;;;;;;;3.20;2.40;;;;;;;28.71;40.07;100834.84;6585636;27;34657;-84
2022/08/09 10:15:11;;;;;;;2.95;2.60;;;;;;;28.70;40.29;100841.50;6606798;27;34596;-84
2022/08/09 10:18:35;;;;;;;2.42;2.22;;;;;;;29.12;40.04;100836.50;6605877;27;33890;-84
2022/08/09 10:21:46;;;;;;;3.22;2.67;;;;;;;29.57;38.80;100835.22;6605982;27;34008;-84
2022/08/09 10:24:51;;;;;;;3.90;2.72;;;;;;;30.02;38.99;100824.72;6586710;27;32418;-84
2022/08/09 10:27:54;;;;;;;5.03;2.30;;;;;;;29.60;38.28;100820.75;6606242;27;34323;-85
2022/08/09 10:31:00;;;;;;;3.45;2.90;;;;;;;29.70;38.21;100819.84;6586337;27;32696;-84
2022/08/09 10:34:24;;;;;;;5.15;2.60;;;;;;;29.51;37.97;100818.91;6586344;27;33842;-84
2022/08/09 10:37:38;;;;;;;2.75;2.40;;;;;;;29.79;37.76;100818.06;6605716;27;34141;-84
2022/08/09 10:40:43;;;;;;;3.05;2.75;;;;;;;29.77;37.62;100814.75;6585322;27;34227;-84
2022/08/09 10:43:51;;;;;;;3.75;2.70;;;;;;;30.00;37.62;100812.25;6585873;27;32573;-84
2022/08/09 10:47:24;;;;;;;3.17;2.40;;;;;;;30.25;36.43;100811.13;6585841;27;32260;-85
2022/08/09 10:51:05;;;;;;;4.85;2.90;;;;;;;30.86;36.20;100807.44;6585951;27;32446;-84
2022/08/09 10:54:09;;;;;;;3.85;2.47;;;;;;;31.35;35.25;100802.41;6587127;27;32582;-84
2022/08/09 10:57:15;;;;;;;2.95;2.17;;;;;;;31.68;33.92;100799.53;6593494;27;32223;-84
2022/08/09 11:00:27;;;;;;;3.78;2.92;;;;;;;31.36;34.50;100804.91;6607487;27;34563;-84
2022/08/09 11:03:30;;;;;;;2.60;2.40;;;;;;;31.46;34.27;100803.06;6605999;27;33888;-85
2022/08/09 11:06:58;;;;;;;3.87;2.30;;;;;;;32.24;33.25;100799.19;6605912;27;34827;-84
2022/08/09 11:10:04;;;;;;;2.72;2.50;;;;;;;33.14;32.00;100790.91;6608529;27;34000;-84
2022/08/09 11:13:18;;;;;;;3.00;2.28;;;;;;;33.00;32.03;100794.94;6606635;27;34094;-84
2022/08/09 11:16:41;;;;;;;2.35;2.15;;;;;;;33.30;31.25;100790.50;6586081;27;33265;-84
2022/08/09 11:20:00;;;;;;;2.28;2.08;;;;;;;33.17;31.11;100781.91;6606412;27;34294;-84
2022/08/09 11:23:15;;;;;;;2.90;2.30;;;;;;;33.41;31.60;100789.91;6608598;27;35340;-87
2022/08/09 11:26:38;;;;;;;7.53;2.62;;;;;;;33.08;31.35;100780.19;6607580;27;33948;-83
2022/08/09 11:29:54;;;;;;;2.03;1.90;;;;;;;34.49;30.52;100784.75;6625033;26;34666;-84
2022/08/09 11:33:17;;;;;;;3.33;2.10;;;;;;;34.28;29.04;100786.53;6625027;26;34658;-84
2022/08/09 11:36:23;;;;;;;3.15;2.17;;;;;;;34.57;29.48;100774.72;6606915;27;33576;-84
2022/08/09 11:40:01;;;;;;;2.37;2.17;;;;;;;35.73;27.82;100776.56;6600762;27;32274;-84
2022/08/09 11:43:06;;;;;;;7.47;2.50;;;;;;;37.56;24.96;100770.13;6604702;27;34809;-84
2022/08/09 11:46:11;;;;;;;2.45;2.10;;;;;;;38.17;23.78;100774.03;6584772;27;32278;-84
2022/08/09 11:49:14;;;;;;;5.60;2.70;;;;;;;37.37;25.01;100778.28;6605392;27;33890;-84
2022/08/09 11:52:30;;;;;;;2.92;2.20;;;;;;;37.44;24.87;100767.28;6585922;27;32369;-84
2022/08/09 11:55:58;;;;;;;2.17;1.90;;;;;;;37.35;25.15;100763.75;6585912;27;32391;-84
2022/08/09 11:59:04;;;;;;;4.53;2.90;;;;;;;36.36;26.36;100762.63;6605375;27;34969;-88
2022/08/09 12:02:12;;;;;;;2.70;2.30;;;;;;;36.93;25.25;100764.72;6605953;27;34293;-88
2022/08/09 12:05:20;;;;;;;2.72;2.15;;;;;;;36.50;25.73;100762.31;6606343;27;33844;-85
2022/08/09 12:08:27;;;;;;;2.83;1.95;;;;;;;34.98;27.73;100757.41;6585554;27;33506;-85
2022/08/09 12:11:30;;;;;;;5.90;2.50;;;;;;;34.16;29.22;100764.00;6586166;27;32343;-85
2022/08/09 12:14:52;;;;;;;2.60;2.40;;;;;;;33.79;29.70;100766.25;6605824;27;34408;-85
2022/08/09 12:18:16;;;;;;;3.30;2.00;;;;;;;33.61;30.22;100762.56;6607179;27;33991;-85
2022/08/09 12:21:33;;;;;;;3.60;2.20;;;;;;;33.08;30.67;100763.44;6585948;27;33561;-85
2022/08/09 12:24:40;;;;;;;4.18;2.50;;;;;;;33.06;30.93;100758.22;6606173;27;34597;-85
2022/08/09 12:27:44;;;;;;;3.03;2.42;;;;;;;32.60;31.48;100755.75;6606386;27;34673;-85
2022/08/09 12:31:18;;;;;;;3.05;2.35;;;;;;;32.69;31.16;100746.28;6605854;27;34475;-85
2022/08/09 12:34:42;;;;;;;4.30;2.40;;;;;;;33.15;30.63;100747.09;6585812;27;32324;-85
2022/08/09 12:37:45;;;;;;;13.65;3.33;;;;;;;33.51;29.94;100744.12;6586587;27;32489;-85
2022/08/09 12:40:56;;;;;;;6.68;2.00;;;;;;;34.36;28.79;100745.78;6585984;27;33205;-89
2022/08/09 12:44:00;;;;;;;4.05;2.30;;;;;;;35.25;27.51;100738.56;6606705;27;33717;-86
2022/08/09 12:47:09;;;;;;;2.90;2.45;;;;;;;35.83;26.84;100734.16;6586011;27;33863;-85
2022/08/09 12:50:17;;;;;;;2.55;2.35;;;;;;;35.28;27.79;100739.84;6606550;27;34928;-85
2022/08/09 12:53:36;;;;;;;2.65;2.40;;;;;;;35.20;27.89;100739.56;6586009;27;33822;-85
2022/08/09 12:56:47;;;;;;;3.97;2.75;;;;;;;34.83;27.84;100727.12;6606064;27;34304;-84
2022/08/09 13:00:33;;;;;;;1.98;1.83;;;;;;;35.75;26.62;100734.22;6607204;27;33710;-84
